Check out our new BloomSky Weather System.

Active alerts

Houston, TX
  Details for Houston, TX River Flood Warning  +1 additional alert
Fort Bend, TX
  Details for Fort Bend, TX River Flood Warning  +1 additional alert


Thunder radar  blitzortung!


Rain radar more information rain snow radar


Visit our other weather sites:

Template documentation
and downloads

And another site



Weather Underground History page Text

Daily Summary for January 29, 2018 Units:  Both    English   Metric
« Previous Day
Next Day »
Daily Weekly Monthly Yearly Custom
  High: Low: Average:
Temperature: TemperatureF °F /  -17.8 °C 40.6 °F /  4.8 °C 52.7 °F /  11.5 °C
Dew Point: DewpointF °F /  -17.8 °C 32.7 °F /  0.4 °C 36.4 °F /  2.4 °C
Humidity: Humidity % 33 % 57 %
Wind Speed: WindSpeedMPH mph /  0 km/h - 3 mph /  4.8 km/h
Wind Gust: WindSpeedGustMPH mph /  0 km/h - -
Wind:- - WNW
Pressure: PressureIn in /  0 hPa 30.31 in /  1026.3 hPa -
Precipitation: 0.00 in /  0 mm    
Historical Graphs
 
 
Tabular Data for January 29, 2018
Time Temperature Dew Point Pressure Wind Wind Speed Wind Gust Humidity Rainfall Rate (Hourly)
TemperatureF °F /  -17.8 °C DewpointF °F /  -17.8 °C PressureIn in /  0 hPa Calm     Humidity % HourlyPrecipIn in /  0 mm
00:00 52.2 °F /  11.2 °C 44.4 °F /  6.9 °C 30.31 in /  1026.3 hPa NNW 1.0 mph /  1.6 km/h 5.0 mph /  8 km/h 75 % 0.00 in /  0 mm
00:05 52.0 °F /  11.1 °C 44.2 °F /  6.8 °C 30.32 in /  1026.6 hPa NW 2.0 mph /  3.2 km/h 5.0 mph /  8 km/h 75 % 0.00 in /  0 mm
00:10 52.0 °F /  11.1 °C 43.9 °F /  6.6 °C 30.32 in /  1026.6 hPa NNW 1.0 mph /  1.6 km/h 5.0 mph /  8 km/h 74 % 0.00 in /  0 mm
00:15 51.6 °F /  10.9 °C 43.5 °F /  6.4 °C 30.32 in /  1026.6 hPa NW 1.0 mph /  1.6 km/h 5.0 mph /  8 km/h 74 % 0.00 in /  0 mm
00:20 51.6 °F /  10.9 °C 43.3 °F /  6.3 °C 30.32 in /  1026.6 hPa NW 2.0 mph /  3.2 km/h 5.0 mph /  8 km/h 73 % 0.00 in /  0 mm
00:25 51.4 °F /  10.8 °C 43.2 °F /  6.2 °C 30.32 in /  1026.6 hPa North 3.0 mph /  4.8 km/h 5.0 mph /  8 km/h 73 % 0.00 in /  0 mm
00:30 51.4 °F /  10.8 °C 43.2 °F /  6.2 °C 30.32 in /  1026.6 hPa Calm   5.0 mph /  8 km/h 73 % 0.00 in /  0 mm
00:35 51.4 °F /  10.8 °C 42.8 °F /  6 °C 30.32 in /  1026.6 hPa NW 1.0 mph /  1.6 km/h 4.0 mph /  6.4 km/h 72 % 0.00 in /  0 mm
00:40 51.3 °F /  10.7 °C 42.6 °F /  5.9 °C 30.32 in /  1026.6 hPa NW 1.0 mph /  1.6 km/h 4.0 mph /  6.4 km/h 72 % 0.00 in /  0 mm
00:45 51.1 °F /  10.6 °C 42.4 °F /  5.8 °C 30.32 in /  1026.6 hPa WNW 1.0 mph /  1.6 km/h 4.0 mph /  6.4 km/h 72 % 0.00 in /  0 mm
00:50 51.1 °F /  10.6 °C 42.1 °F /  5.6 °C 30.32 in /  1026.6 hPa NNE 2.0 mph /  3.2 km/h 5.0 mph /  8 km/h 71 % 0.00 in /  0 mm
00:55 50.7 °F /  10.4 °C 41.7 °F /  5.4 °C 30.32 in /  1026.6 hPa NNW 1.0 mph /  1.6 km/h 5.0 mph /  8 km/h 71 % 0.00 in /  0 mm
01:00 50.7 °F /  10.4 °C 41.7 °F /  5.4 °C 30.32 in /  1026.6 hPa NNW 2.0 mph /  3.2 km/h 5.0 mph /  8 km/h 71 % 0.00 in /  0 mm
01:05 50.5 °F /  10.3 °C 41.5 °F /  5.3 °C 30.32 in /  1026.6 hPa NW 1.0 mph /  1.6 km/h 4.0 mph /  6.4 km/h 71 % 0.00 in /  0 mm
01:10 50.5 °F /  10.3 °C 41.5 °F /  5.3 °C 30.33 in /  1027 hPa WNW 1.0 mph /  1.6 km/h 4.0 mph /  6.4 km/h 71 % 0.00 in /  0 mm
01:15 50.4 °F /  10.2 °C 41.4 °F /  5.2 °C 30.33 in /  1027 hPa NW 2.0 mph /  3.2 km/h 3.0 mph /  4.8 km/h 71 % 0.00 in /  0 mm
01:20 50.2 °F /  10.1 °C 41.2 °F /  5.1 °C 30.32 in /  1026.6 hPa NW 1.0 mph /  1.6 km/h 3.0 mph /  4.8 km/h 71 % 0.00 in /  0 mm
01:25 50.2 °F /  10.1 °C 41.2 °F /  5.1 °C 30.33 in /  1027 hPa Calm   3.0 mph /  4.8 km/h 71 % 0.00 in /  0 mm
01:30 49.6 °F /  9.8 °C 40.6 °F /  4.8 °C 30.33 in /  1027 hPa Calm   3.0 mph /  4.8 km/h 71 % 0.00 in /  0 mm
01:35 49.5 °F /  9.7 °C 40.5 °F /  4.7 °C 30.33 in /  1027 hPa Calm   2.0 mph /  3.2 km/h 71 % 0.00 in /  0 mm
01:40 48.9 °F /  9.4 °C 40.3 °F /  4.6 °C 30.33 in /  1027 hPa WNW 1.0 mph /  1.6 km/h 1.0 mph /  1.6 km/h 72 % 0.00 in /  0 mm
01:45 48.9 °F /  9.4 °C 40.3 °F /  4.6 °C 30.33 in /  1027 hPa Calm   2.0 mph /  3.2 km/h 72 % 0.00 in /  0 mm
01:50 48.9 °F /  9.4 °C 40.3 °F /  4.6 °C 30.33 in /  1027 hPa Calm   2.0 mph /  3.2 km/h 72 % 0.00 in /  0 mm
01:55 48.7 °F /  9.3 °C 40.1 °F /  4.5 °C 30.33 in /  1027 hPa Calm   2.0 mph /  3.2 km/h 72 % 0.00 in /  0 mm
02:00 48.6 °F /  9.2 °C 40.3 °F /  4.6 °C 30.33 in /  1027 hPa Calm   2.0 mph /  3.2 km/h 73 % 0.00 in /  0 mm
02:05 48.4 °F /  9.1 °C 40.1 °F /  4.5 °C 30.33 in /  1027 hPa Calm   2.0 mph /  3.2 km/h 73 % 0.00 in /  0 mm
02:10 48.2 °F /  9 °C 39.9 °F /  4.4 °C 30.33 in /  1027 hPa Calm   1.0 mph /  1.6 km/h 73 % 0.00 in /  0 mm
02:15 48.0 °F /  8.9 °C 39.7 °F /  4.3 °C 30.33 in /  1027 hPa Calm   1.0 mph /  1.6 km/h 73 % 0.00 in /  0 mm
02:20 48.0 °F /  8.9 °C 39.7 °F /  4.3 °C 30.33 in /  1027 hPa Calm   1.0 mph /  1.6 km/h 73 % 0.00 in /  0 mm
02:25 47.8 °F /  8.8 °C 39.6 °F /  4.2 °C 30.33 in /  1027 hPa Calm   1.0 mph /  1.6 km/h 73 % 0.00 in /  0 mm
02:30 47.7 °F /  8.7 °C 39.7 °F /  4.3 °C 30.33 in /  1027 hPa NNW 1.0 mph /  1.6 km/h 1.0 mph /  1.6 km/h 74 % 0.00 in /  0 mm
02:35 47.5 °F /  8.6 °C 39.6 °F /  4.2 °C 30.33 in /  1027 hPa Calm   1.0 mph /  1.6 km/h 74 % 0.00 in /  0 mm
02:40 47.1 °F /  8.4 °C 39.6 °F /  4.2 °C 30.33 in /  1027 hPa Calm   1.0 mph /  1.6 km/h 75 % 0.00 in /  0 mm
02:45 46.8 °F /  8.2 °C 39.6 °F /  4.2 °C 30.33 in /  1027 hPa Calm   1.0 mph /  1.6 km/h 76 % 0.00 in /  0 mm
02:50 46.6 °F /  8.1 °C 39.4 °F /  4.1 °C 30.33 in /  1027 hPa Calm   1.0 mph /  1.6 km/h 76 % 0.00 in /  0 mm
02:55 46.4 °F /  8 °C 39.2 °F /  4 °C 30.33 in /  1027 hPa Calm   1.0 mph /  1.6 km/h 76 % 0.00 in /  0 mm
03:00 46.2 °F /  7.9 °C 39.4 °F /  4.1 °C 30.33 in /  1027 hPa Calm   1.0 mph /  1.6 km/h 77 % 0.00 in /  0 mm
03:05 45.9 °F /  7.7 °C 39.0 °F /  3.9 °C 30.33 in /  1027 hPa Calm   1.0 mph /  1.6 km/h 77 % 0.00 in /  0 mm
03:10 45.3 °F /  7.4 °C 38.5 °F /  3.6 °C 30.33 in /  1027 hPa Calm   1.0 mph /  1.6 km/h 77 % 0.00 in /  0 mm
03:15 44.8 °F /  7.1 °C 37.9 °F /  3.3 °C 30.33 in /  1027 hPa Calm     77 % 0.00 in /  0 mm
03:20 44.2 °F /  6.8 °C 38.5 °F /  3.6 °C 30.33 in /  1027 hPa Calm   1.0 mph /  1.6 km/h 80 % 0.00 in /  0 mm
03:25 44.2 °F /  6.8 °C 39.0 °F /  3.9 °C 30.33 in /  1027 hPa Calm   1.0 mph /  1.6 km/h 82 % 0.00 in /  0 mm
03:30 44.1 °F /  6.7 °C 38.8 °F /  3.8 °C 30.34 in /  1027.3 hPa Calm   1.0 mph /  1.6 km/h 82 % 0.00 in /  0 mm
03:35 43.9 °F /  6.6 °C 39.0 °F /  3.9 °C 30.33 in /  1027 hPa Calm   1.0 mph /  1.6 km/h 83 % 0.00 in /  0 mm
03:40 43.9 °F /  6.6 °C 39.4 °F /  4.1 °C 30.33 in /  1027 hPa Calm   1.0 mph /  1.6 km/h 84 % 0.00 in /  0 mm
03:45 43.5 °F /  6.4 °C 39.0 °F /  3.9 °C 30.33 in /  1027 hPa Calm   1.0 mph /  1.6 km/h 84 % 0.00 in /  0 mm
03:50 43.2 °F /  6.2 °C 38.3 °F /  3.5 °C 30.33 in /  1027 hPa Calm     83 % 0.00 in /  0 mm
03:55 42.4 °F /  5.8 °C 37.6 °F /  3.1 °C 30.33 in /  1027 hPa Calm     83 % 0.00 in /  0 mm
04:00 42.1 °F /  5.6 °C 37.9 °F /  3.3 °C 30.33 in /  1027 hPa Calm     85 % 0.00 in /  0 mm
04:05 42.1 °F /  5.6 °C 38.1 °F /  3.4 °C 30.33 in /  1027 hPa Calm     86 % 0.00 in /  0 mm
04:10 42.1 °F /  5.6 °C 38.1 °F /  3.4 °C 30.33 in /  1027 hPa Calm     86 % 0.00 in /  0 mm
04:15 42.1 °F /  5.6 °C 38.1 °F /  3.4 °C 30.33 in /  1027 hPa Calm     86 % 0.00 in /  0 mm
04:20 41.9 °F /  5.5 °C 38.3 °F /  3.5 °C 30.33 in /  1027 hPa NNW 1.0 mph /  1.6 km/h 1.0 mph /  1.6 km/h 87 % 0.00 in /  0 mm
04:25 42.3 °F /  5.7 °C 38.7 °F /  3.7 °C 30.33 in /  1027 hPa Calm   1.0 mph /  1.6 km/h 87 % 0.00 in /  0 mm
04:30 42.6 °F /  5.9 °C 38.7 °F /  3.7 °C 30.33 in /  1027 hPa Calm   1.0 mph /  1.6 km/h 86 % 0.00 in /  0 mm
04:35 43.0 °F /  6.1 °C 39.0 °F /  3.9 °C 30.33 in /  1027 hPa Calm   1.0 mph /  1.6 km/h 86 % 0.00 in /  0 mm
04:40 43.0 °F /  6.1 °C 38.8 °F /  3.8 °C 30.33 in /  1027 hPa Calm   1.0 mph /  1.6 km/h 85 % 0.00 in /  0 mm
04:46 43.0 °F /  6.1 °C 38.8 °F /  3.8 °C 30.33 in /  1027 hPa Calm   1.0 mph /  1.6 km/h 85 % 0.00 in /  0 mm
04:51 43.2 °F /  6.2 °C 39.0 °F /  3.9 °C 30.33 in /  1027 hPa Calm   2.0 mph /  3.2 km/h 85 % 0.00 in /  0 mm
04:55 43.2 °F /  6.2 °C 39.0 °F /  3.9 °C 30.33 in /  1027 hPa Calm   2.0 mph /  3.2 km/h 85 % 0.00 in /  0 mm
05:00 43.3 °F /  6.3 °C 38.8 °F /  3.8 °C 30.34 in /  1027.3 hPa NNW 1.0 mph /  1.6 km/h 3.0 mph /  4.8 km/h 84 % 0.00 in /  0 mm
05:05 43.5 °F /  6.4 °C 38.7 °F /  3.7 °C 30.34 in /  1027.3 hPa North 2.0 mph /  3.2 km/h 3.0 mph /  4.8 km/h 83 % 0.00 in /  0 mm
05:11 43.9 °F /  6.6 °C 38.7 °F /  3.7 °C 30.34 in /  1027.3 hPa NW 1.0 mph /  1.6 km/h 3.0 mph /  4.8 km/h 82 % 0.00 in /  0 mm
05:16 43.9 °F /  6.6 °C 38.5 °F /  3.6 °C 30.34 in /  1027.3 hPa NW 2.0 mph /  3.2 km/h 3.0 mph /  4.8 km/h 81 % 0.00 in /  0 mm
05:21 44.1 °F /  6.7 °C 38.3 °F /  3.5 °C 30.35 in /  1027.7 hPa NNW 1.0 mph /  1.6 km/h 3.0 mph /  4.8 km/h 80 % 0.00 in /  0 mm
05:26 44.4 °F /  6.9 °C 38.3 °F /  3.5 °C 30.35 in /  1027.7 hPa NW 1.0 mph /  1.6 km/h 3.0 mph /  4.8 km/h 79 % 0.00 in /  0 mm
05:31 44.4 °F /  6.9 °C 38.3 °F /  3.5 °C 30.35 in /  1027.7 hPa NW 1.0 mph /  1.6 km/h 3.0 mph /  4.8 km/h 79 % 0.00 in /  0 mm
05:36 44.4 °F /  6.9 °C 38.3 °F /  3.5 °C 30.35 in /  1027.7 hPa NNW 1.0 mph /  1.6 km/h 2.0 mph /  3.2 km/h 79 % 0.00 in /  0 mm
05:41 44.6 °F /  7 °C 38.5 °F /  3.6 °C 30.36 in /  1028 hPa WNW 2.0 mph /  3.2 km/h 3.0 mph /  4.8 km/h 79 % 0.00 in /  0 mm
05:46 44.6 °F /  7 °C 38.1 °F /  3.4 °C 30.36 in /  1028 hPa NW 1.0 mph /  1.6 km/h 3.0 mph /  4.8 km/h 78 % 0.00 in /  0 mm
05:51 44.6 °F /  7 °C 38.1 °F /  3.4 °C 30.36 in /  1028 hPa NNW 2.0 mph /  3.2 km/h 4.0 mph /  6.4 km/h 78 % 0.00 in /  0 mm
05:56 44.6 °F /  7 °C 38.1 °F /  3.4 °C 30.37 in /  1028.3 hPa NW 2.0 mph /  3.2 km/h 4.0 mph /  6.4 km/h 78 % 0.00 in /  0 mm
06:01 44.4 °F /  6.9 °C 37.9 °F /  3.3 °C 30.37 in /  1028.3 hPa NW 1.0 mph /  1.6 km/h 4.0 mph /  6.4 km/h 78 % 0.00 in /  0 mm
06:06 44.4 °F /  6.9 °C 38.3 °F /  3.5 °C 30.37 in /  1028.3 hPa NW 1.0 mph /  1.6 km/h 3.0 mph /  4.8 km/h 79 % 0.00 in /  0 mm
06:11 44.2 °F /  6.8 °C 38.1 °F /  3.4 °C 30.37 in /  1028.3 hPa NNW 1.0 mph /  1.6 km/h 2.0 mph /  3.2 km/h 79 % 0.00 in /  0 mm
06:16 44.1 °F /  6.7 °C 37.9 °F /  3.3 °C 30.37 in /  1028.3 hPa NW 1.0 mph /  1.6 km/h 2.0 mph /  3.2 km/h 79 % 0.00 in /  0 mm
06:21 44.1 °F /  6.7 °C 37.9 °F /  3.3 °C 30.38 in /  1028.7 hPa NW 1.0 mph /  1.6 km/h 2.0 mph /  3.2 km/h 79 % 0.00 in /  0 mm
06:26 43.9 °F /  6.6 °C 38.1 °F /  3.4 °C 30.38 in /  1028.7 hPa Calm   2.0 mph /  3.2 km/h 80 % 0.00 in /  0 mm
06:31 43.7 °F /  6.5 °C 37.9 °F /  3.3 °C 30.38 in /  1028.7 hPa Calm   2.0 mph /  3.2 km/h 80 % 0.00 in /  0 mm
06:36 43.3 °F /  6.3 °C 37.6 °F /  3.1 °C 30.38 in /  1028.7 hPa Calm   2.0 mph /  3.2 km/h 80 % 0.00 in /  0 mm
06:41 43.0 °F /  6.1 °C 37.2 °F /  2.9 °C 30.38 in /  1028.7 hPa Calm   1.0 mph /  1.6 km/h 80 % 0.00 in /  0 mm
06:46 42.6 °F /  5.9 °C 37.2 °F /  2.9 °C 30.39 in /  1029 hPa Calm   1.0 mph /  1.6 km/h 81 % 0.00 in /  0 mm
06:51 42.3 °F /  5.7 °C 36.9 °F /  2.7 °C 30.39 in /  1029 hPa Calm   1.0 mph /  1.6 km/h 81 % 0.00 in /  0 mm
06:56 41.9 °F /  5.5 °C 36.9 °F /  2.7 °C 30.39 in /  1029 hPa Calm   1.0 mph /  1.6 km/h 82 % 0.00 in /  0 mm
07:01 41.5 °F /  5.3 °C 36.5 °F /  2.5 °C 30.39 in /  1029 hPa Calm   1.0 mph /  1.6 km/h 82 % 0.00 in /  0 mm
07:06 41.2 °F /  5.1 °C 36.5 °F /  2.5 °C 30.40 in /  1029.3 hPa Calm   1.0 mph /  1.6 km/h 83 % 0.00 in /  0 mm
07:11 40.8 °F /  4.9 °C 36.1 °F /  2.3 °C 30.40 in /  1029.3 hPa Calm   1.0 mph /  1.6 km/h 83 % 0.00 in /  0 mm
07:16 40.6 °F /  4.8 °C 36.1 °F /  2.3 °C 30.40 in /  1029.3 hPa Calm   1.0 mph /  1.6 km/h 84 % 0.00 in /  0 mm
07:21 40.8 °F /  4.9 °C 36.7 °F /  2.6 °C 30.40 in /  1029.3 hPa Calm   1.0 mph /  1.6 km/h 85 % 0.00 in /  0 mm
07:26 41.0 °F /  5 °C 36.5 °F /  2.5 °C 30.40 in /  1029.3 hPa Calm   1.0 mph /  1.6 km/h 84 % 0.00 in /  0 mm
07:31 41.2 °F /  5.1 °C 36.7 °F /  2.6 °C 30.40 in /  1029.3 hPa NNW 1.0 mph /  1.6 km/h 2.0 mph /  3.2 km/h 84 % 0.00 in /  0 mm
07:36 41.5 °F /  5.3 °C 36.7 °F /  2.6 °C 30.41 in /  1029.7 hPa North 1.0 mph /  1.6 km/h 2.0 mph /  3.2 km/h 83 % 0.00 in /  0 mm
07:41 41.7 °F /  5.4 °C 36.7 °F /  2.6 °C 30.41 in /  1029.7 hPa Calm   2.0 mph /  3.2 km/h 82 % 0.00 in /  0 mm
07:46 42.1 °F /  5.6 °C 37.0 °F /  2.8 °C 30.41 in /  1029.7 hPa Calm   1.0 mph /  1.6 km/h 82 % 0.00 in /  0 mm
07:51 42.4 °F /  5.8 °C 37.0 °F /  2.8 °C 30.41 in /  1029.7 hPa Calm   1.0 mph /  1.6 km/h 81 % 0.00 in /  0 mm
07:56 43.2 °F /  6.2 °C 37.4 °F /  3 °C 30.41 in /  1029.7 hPa Calm   2.0 mph /  3.2 km/h 80 % 0.00 in /  0 mm
08:01 43.7 °F /  6.5 °C 37.2 °F /  2.9 °C 30.41 in /  1029.7 hPa NW 2.0 mph /  3.2 km/h 2.0 mph /  3.2 km/h 78 % 0.00 in /  0 mm
08:06 44.4 °F /  6.9 °C 37.4 °F /  3 °C 30.41 in /  1029.7 hPa NNW 1.0 mph /  1.6 km/h 4.0 mph /  6.4 km/h 76 % 0.00 in /  0 mm
08:11 45.1 °F /  7.3 °C 37.4 °F /  3 °C 30.41 in /  1029.7 hPa NW 2.0 mph /  3.2 km/h 4.0 mph /  6.4 km/h 74 % 0.00 in /  0 mm
08:16 45.7 °F /  7.6 °C 37.6 °F /  3.1 °C 30.41 in /  1029.7 hPa NW 2.0 mph /  3.2 km/h 5.0 mph /  8 km/h 73 % 0.00 in /  0 mm
08:21 46.2 °F /  7.9 °C 37.8 °F /  3.2 °C 30.41 in /  1029.7 hPa NNW 4.0 mph /  6.4 km/h 5.0 mph /  8 km/h 72 % 0.00 in /  0 mm
08:26 46.8 °F /  8.2 °C 37.6 °F /  3.1 °C 30.42 in /  1030 hPa NW 4.0 mph /  6.4 km/h 5.0 mph /  8 km/h 70 % 0.00 in /  0 mm
08:31 47.3 °F /  8.5 °C 37.6 °F /  3.1 °C 30.42 in /  1030 hPa NW 2.0 mph /  3.2 km/h 6.0 mph /  9.7 km/h 69 % 0.00 in /  0 mm
08:36 47.8 °F /  8.8 °C 38.1 °F /  3.4 °C 30.42 in /  1030 hPa WNW 2.0 mph /  3.2 km/h 6.0 mph /  9.7 km/h 69 % 0.00 in /  0 mm
08:41 48.4 °F /  9.1 °C 37.9 °F /  3.3 °C 30.42 in /  1030 hPa NW 2.0 mph /  3.2 km/h 6.0 mph /  9.7 km/h 67 % 0.00 in /  0 mm
08:46 48.7 °F /  9.3 °C 37.9 °F /  3.3 °C 30.42 in /  1030 hPa WNW 1.0 mph /  1.6 km/h 6.0 mph /  9.7 km/h 66 % 0.00 in /  0 mm
08:51 49.5 °F /  9.7 °C 38.1 °F /  3.4 °C 30.42 in /  1030 hPa NW 1.0 mph /  1.6 km/h 6.0 mph /  9.7 km/h 65 % 0.00 in /  0 mm
08:56 50.2 °F /  10.1 °C 38.5 °F /  3.6 °C 30.42 in /  1030 hPa NNW 5.0 mph /  8 km/h 6.0 mph /  9.7 km/h 64 % 0.00 in /  0 mm
09:01 50.5 °F /  10.3 °C 37.6 °F /  3.1 °C 30.43 in /  1030.4 hPa NNW 2.0 mph /  3.2 km/h 7.0 mph /  11.3 km/h 61 % 0.00 in /  0 mm
09:06 51.3 °F /  10.7 °C 38.3 °F /  3.5 °C 30.43 in /  1030.4 hPa NNW 6.0 mph /  9.7 km/h 7.0 mph /  11.3 km/h 61 % 0.00 in /  0 mm
09:11 51.8 °F /  11 °C 37.9 °F /  3.3 °C 30.43 in /  1030.4 hPa WNW 2.0 mph /  3.2 km/h 8.0 mph /  12.9 km/h 59 % 0.00 in /  0 mm
09:16 52.3 °F /  11.3 °C 37.6 °F /  3.1 °C 30.43 in /  1030.4 hPa North 5.0 mph /  8 km/h 8.0 mph /  12.9 km/h 57 % 0.00 in /  0 mm
09:21 52.7 °F /  11.5 °C 37.9 °F /  3.3 °C 30.43 in /  1030.4 hPa WNW 1.0 mph /  1.6 km/h 8.0 mph /  12.9 km/h 57 % 0.00 in /  0 mm
09:26 53.4 °F /  11.9 °C 38.1 °F /  3.4 °C 30.43 in /  1030.4 hPa NNW 3.0 mph /  4.8 km/h 7.0 mph /  11.3 km/h 56 % 0.00 in /  0 mm
09:31 54.0 °F /  12.2 °C 37.8 °F /  3.2 °C 30.43 in /  1030.4 hPa NW 2.0 mph /  3.2 km/h 7.0 mph /  11.3 km/h 54 % 0.00 in /  0 mm
09:36 54.1 °F /  12.3 °C 38.3 °F /  3.5 °C 30.43 in /  1030.4 hPa WNW 2.0 mph /  3.2 km/h 6.0 mph /  9.7 km/h 55 % 0.00 in /  0 mm
09:41 55.0 °F /  12.8 °C 37.8 °F /  3.2 °C 30.43 in /  1030.4 hPa NW 3.0 mph /  4.8 km/h 6.0 mph /  9.7 km/h 52 % 0.00 in /  0 mm
09:46 55.6 °F /  13.1 °C 37.8 °F /  3.2 °C 30.44 in /  1030.7 hPa WNW 1.0 mph /  1.6 km/h 6.0 mph /  9.7 km/h 51 % 0.00 in /  0 mm
09:51 56.1 °F /  13.4 °C 37.2 °F /  2.9 °C 30.44 in /  1030.7 hPa NW 2.0 mph /  3.2 km/h 6.0 mph /  9.7 km/h 49 % 0.00 in /  0 mm
09:56 56.5 °F /  13.6 °C 37.0 °F /  2.8 °C 30.44 in /  1030.7 hPa NE 5.0 mph /  8 km/h 8.0 mph /  12.9 km/h 48 % 0.00 in /  0 mm
10:01 57.0 °F /  13.9 °C 37.0 °F /  2.8 °C 30.45 in /  1031 hPa North 2.0 mph /  3.2 km/h 8.0 mph /  12.9 km/h 47 % 0.00 in /  0 mm
10:06 57.6 °F /  14.2 °C 35.8 °F /  2.1 °C 30.45 in /  1031 hPa NW 6.0 mph /  9.7 km/h 8.0 mph /  12.9 km/h 44 % 0.00 in /  0 mm
10:11 57.9 °F /  14.4 °C 36.1 °F /  2.3 °C 30.45 in /  1031 hPa North 4.0 mph /  6.4 km/h 8.0 mph /  12.9 km/h 44 % 0.00 in /  0 mm
10:16 58.5 °F /  14.7 °C 36.0 °F /  2.2 °C 30.45 in /  1031 hPa WNW 3.0 mph /  4.8 km/h 8.0 mph /  12.9 km/h 43 % 0.00 in /  0 mm
10:21 58.6 °F /  14.8 °C 35.1 °F /  1.7 °C 30.45 in /  1031 hPa North 6.0 mph /  9.7 km/h 8.0 mph /  12.9 km/h 41 % 0.00 in /  0 mm
10:26 58.6 °F /  14.8 °C 35.1 °F /  1.7 °C 30.45 in /  1031 hPa NW 5.0 mph /  8 km/h 10.0 mph /  16.1 km/h 41 % 0.00 in /  0 mm
10:31 58.8 °F /  14.9 °C 35.2 °F /  1.8 °C 30.45 in /  1031 hPa NNW 7.0 mph /  11.3 km/h 10.0 mph /  16.1 km/h 41 % 0.00 in /  0 mm
10:36 58.8 °F /  14.9 °C 35.2 °F /  1.8 °C 30.45 in /  1031 hPa NNW 4.0 mph /  6.4 km/h 11.0 mph /  17.7 km/h 41 % 0.00 in /  0 mm
10:41 58.6 °F /  14.8 °C 35.1 °F /  1.7 °C 30.45 in /  1031 hPa WNW 7.0 mph /  11.3 km/h 11.0 mph /  17.7 km/h 41 % 0.00 in /  0 mm
10:46 58.5 °F /  14.7 °C 34.9 °F /  1.6 °C 30.45 in /  1031 hPa NW 4.0 mph /  6.4 km/h 12.0 mph /  19.3 km/h 41 % 0.00 in /  0 mm
10:51 58.8 °F /  14.9 °C 35.2 °F /  1.8 °C 30.45 in /  1031 hPa NNW 9.0 mph /  14.5 km/h 12.0 mph /  19.3 km/h 41 % 0.00 in /  0 mm
10:56 59.4 °F /  15.2 °C 35.1 °F /  1.7 °C 30.45 in /  1031 hPa NW 5.0 mph /  8 km/h 12.0 mph /  19.3 km/h 40 % 0.00 in /  0 mm
11:01 59.4 °F /  15.2 °C 34.3 °F /  1.3 °C 30.45 in /  1031 hPa NNW 1.0 mph /  1.6 km/h 10.0 mph /  16.1 km/h 39 % 0.00 in /  0 mm
11:06 60.1 °F /  15.6 °C 35.6 °F /  2 °C 30.45 in /  1031 hPa NNW 4.0 mph /  6.4 km/h 10.0 mph /  16.1 km/h 40 % 0.00 in /  0 mm
11:11 60.6 °F /  15.9 °C 35.6 °F /  2 °C 30.44 in /  1030.7 hPa NW 4.0 mph /  6.4 km/h 10.0 mph /  16.1 km/h 39 % 0.00 in /  0 mm
11:16 60.3 °F /  15.7 °C 33.8 °F /  1 °C 30.44 in /  1030.7 hPa NW 4.0 mph /  6.4 km/h 12.0 mph /  19.3 km/h 37 % 0.00 in /  0 mm
11:21 60.3 °F /  15.7 °C 33.8 °F /  1 °C 30.44 in /  1030.7 hPa NNW 12.0 mph /  19.3 km/h 12.0 mph /  19.3 km/h 37 % 0.00 in /  0 mm
11:26 60.6 °F /  15.9 °C 34.2 °F /  1.2 °C 30.44 in /  1030.7 hPa NNE 9.0 mph /  14.5 km/h 12.0 mph /  19.3 km/h 37 % 0.00 in /  0 mm
11:31 60.6 °F /  15.9 °C 34.9 °F /  1.6 °C 30.45 in /  1031 hPa West 7.0 mph /  11.3 km/h 12.0 mph /  19.3 km/h 38 % 0.00 in /  0 mm
11:36 61.0 °F /  16.1 °C 35.2 °F /  1.8 °C 30.44 in /  1030.7 hPa NNE 8.0 mph /  12.9 km/h 12.0 mph /  19.3 km/h 38 % 0.00 in /  0 mm
11:41 61.0 °F /  16.1 °C 33.8 °F /  1 °C 30.44 in /  1030.7 hPa NW 5.0 mph /  8 km/h 11.0 mph /  17.7 km/h 36 % 0.00 in /  0 mm
11:46 60.6 °F /  15.9 °C 34.9 °F /  1.6 °C 30.44 in /  1030.7 hPa NW 6.0 mph /  9.7 km/h 13.0 mph /  20.9 km/h 38 % 0.00 in /  0 mm
11:51 60.6 °F /  15.9 °C 36.1 °F /  2.3 °C 30.44 in /  1030.7 hPa NW 8.0 mph /  12.9 km/h 13.0 mph /  20.9 km/h 40 % 0.00 in /  0 mm
11:56 60.6 °F /  15.9 °C 34.9 °F /  1.6 °C 30.44 in /  1030.7 hPa North 5.0 mph /  8 km/h 13.0 mph /  20.9 km/h 38 % 0.00 in /  0 mm
12:01 61.0 °F /  16.1 °C 35.8 °F /  2.1 °C 30.43 in /  1030.4 hPa West 6.0 mph /  9.7 km/h 13.0 mph /  20.9 km/h 39 % 0.00 in /  0 mm
12:06 61.0 °F /  16.1 °C 35.8 °F /  2.1 °C 30.43 in /  1030.4 hPa North 5.0 mph /  8 km/h 13.0 mph /  20.9 km/h 39 % 0.00 in /  0 mm
12:11 61.3 °F /  16.3 °C 36.1 °F /  2.3 °C 30.43 in /  1030.4 hPa North 6.0 mph /  9.7 km/h 10.0 mph /  16.1 km/h 39 % 0.00 in /  0 mm
12:16 61.3 °F /  16.3 °C 36.1 °F /  2.3 °C 30.42 in /  1030 hPa NW 5.0 mph /  8 km/h 12.0 mph /  19.3 km/h 39 % 0.00 in /  0 mm
12:21 61.3 °F /  16.3 °C 35.6 °F /  2 °C 30.42 in /  1030 hPa NW 5.0 mph /  8 km/h 12.0 mph /  19.3 km/h 38 % 0.00 in /  0 mm
12:26 61.5 °F /  16.4 °C 36.3 °F /  2.4 °C 30.41 in /  1029.7 hPa NNW 8.0 mph /  12.9 km/h 12.0 mph /  19.3 km/h 39 % 0.00 in /  0 mm
12:31 61.9 °F /  16.6 °C 36.7 °F /  2.6 °C 30.42 in /  1030 hPa NNW 9.0 mph /  14.5 km/h 13.0 mph /  20.9 km/h 39 % 0.00 in /  0 mm
12:37 61.9 °F /  16.6 °C 36.0 °F /  2.2 °C 30.41 in /  1029.7 hPa NW 8.0 mph /  12.9 km/h 14.0 mph /  22.5 km/h 38 % 0.00 in /  0 mm
12:42 62.1 °F /  16.7 °C 36.9 °F /  2.7 °C 30.41 in /  1029.7 hPa NE 5.0 mph /  8 km/h 14.0 mph /  22.5 km/h 39 % 0.00 in /  0 mm
12:47 62.2 °F /  16.8 °C 37.0 °F /  2.8 °C 30.41 in /  1029.7 hPa NW 4.0 mph /  6.4 km/h 14.0 mph /  22.5 km/h 39 % 0.00 in /  0 mm
12:52 62.1 °F /  16.7 °C 34.9 °F /  1.6 °C 30.40 in /  1029.3 hPa NW 10.0 mph /  16.1 km/h 15.0 mph /  24.1 km/h 36 % 0.00 in /  0 mm
12:57 61.5 °F /  16.4 °C 34.3 °F /  1.3 °C 30.40 in /  1029.3 hPa NW 6.0 mph /  9.7 km/h 16.0 mph /  25.7 km/h 36 % 0.00 in /  0 mm
13:02 61.9 °F /  16.6 °C 34.7 °F /  1.5 °C 30.40 in /  1029.3 hPa NW 9.0 mph /  14.5 km/h 16.0 mph /  25.7 km/h 36 % 0.00 in /  0 mm
13:07 62.1 °F /  16.7 °C 35.4 °F /  1.9 °C 30.40 in /  1029.3 hPa WNW 9.0 mph /  14.5 km/h 16.0 mph /  25.7 km/h 37 % 0.00 in /  0 mm
13:12 62.2 °F /  16.8 °C 34.9 °F /  1.6 °C 30.40 in /  1029.3 hPa NNW 8.0 mph /  12.9 km/h 16.0 mph /  25.7 km/h 36 % 0.00 in /  0 mm
13:17 62.2 °F /  16.8 °C 34.9 °F /  1.6 °C 30.39 in /  1029 hPa NW 9.0 mph /  14.5 km/h 16.0 mph /  25.7 km/h 36 % 0.00 in /  0 mm
13:22 62.4 °F /  16.9 °C 32.9 °F /  0.5 °C 30.39 in /  1029 hPa NW 10.0 mph /  16.1 km/h 18.0 mph /  29 km/h 33 % 0.00 in /  0 mm
13:27 62.2 °F /  16.8 °C 33.4 °F /  0.8 °C 30.39 in /  1029 hPa NNE 10.0 mph /  16.1 km/h 22.0 mph /  35.4 km/h 34 % 0.00 in /  0 mm
13:32 62.6 °F /  17 °C 33.1 °F /  0.6 °C 30.38 in /  1028.7 hPa ENE 8.0 mph /  12.9 km/h 22.0 mph /  35.4 km/h 33 % 0.00 in /  0 mm
13:37 62.4 °F /  16.9 °C 33.6 °F /  0.9 °C 30.38 in /  1028.7 hPa NNW 7.0 mph /  11.3 km/h 22.0 mph /  35.4 km/h 34 % 0.00 in /  0 mm
13:42 62.4 °F /  16.9 °C 34.3 °F /  1.3 °C 30.38 in /  1028.7 hPa NNW 8.0 mph /  12.9 km/h 17.0 mph /  27.4 km/h 35 % 0.00 in /  0 mm
13:47 62.8 °F /  17.1 °C 34.7 °F /  1.5 °C 30.38 in /  1028.7 hPa NW 9.0 mph /  14.5 km/h 20.0 mph /  32.2 km/h 35 % 0.00 in /  0 mm
13:52 62.8 °F /  17.1 °C 35.4 °F /  1.9 °C 30.38 in /  1028.7 hPa NNW 13.0 mph /  20.9 km/h 20.0 mph /  32.2 km/h 36 % 0.00 in /  0 mm
13:57 63.0 °F /  17.2 °C 36.3 °F /  2.4 °C 30.38 in /  1028.7 hPa NW 7.0 mph /  11.3 km/h 20.0 mph /  32.2 km/h 37 % 0.00 in /  0 mm
14:02 63.0 °F /  17.2 °C 35.6 °F /  2 °C 30.38 in /  1028.7 hPa NNW 6.0 mph /  9.7 km/h 19.0 mph /  30.6 km/h 36 % 0.00 in /  0 mm
14:07 63.1 °F /  17.3 °C 35.8 °F /  2.1 °C 30.38 in /  1028.7 hPa NNW 15.0 mph /  24.1 km/h 19.0 mph /  30.6 km/h 36 % 0.00 in /  0 mm
14:12 63.1 °F /  17.3 °C 35.8 °F /  2.1 °C 30.38 in /  1028.7 hPa NW 5.0 mph /  8 km/h 15.0 mph /  24.1 km/h 36 % 0.00 in /  0 mm
14:17 63.3 °F /  17.4 °C 36.7 °F /  2.6 °C 30.38 in /  1028.7 hPa WNW 8.0 mph /  12.9 km/h 15.0 mph /  24.1 km/h 37 % 0.00 in /  0 mm
14:22 63.3 °F /  17.4 °C 36.0 °F /  2.2 °C 30.38 in /  1028.7 hPa NNW 5.0 mph /  8 km/h 15.0 mph /  24.1 km/h 36 % 0.00 in /  0 mm
14:27 63.7 °F /  17.6 °C 36.9 °F /  2.7 °C 30.38 in /  1028.7 hPa NW 5.0 mph /  8 km/h 15.0 mph /  24.1 km/h 37 % 0.00 in /  0 mm
14:32 63.7 °F /  17.6 °C 37.6 °F /  3.1 °C 30.38 in /  1028.7 hPa NNW 13.0 mph /  20.9 km/h 15.0 mph /  24.1 km/h 38 % 0.00 in /  0 mm
14:37 63.7 °F /  17.6 °C 36.1 °F /  2.3 °C 30.37 in /  1028.3 hPa NW 5.0 mph /  8 km/h 18.0 mph /  29 km/h 36 % 0.00 in /  0 mm
14:42 63.9 °F /  17.7 °C 37.0 °F /  2.8 °C 30.37 in /  1028.3 hPa NNE 5.0 mph /  8 km/h 18.0 mph /  29 km/h 37 % 0.00 in /  0 mm
14:47 64.0 °F /  17.8 °C 36.5 °F /  2.5 °C 30.37 in /  1028.3 hPa NW 8.0 mph /  12.9 km/h 18.0 mph /  29 km/h 36 % 0.00 in /  0 mm
14:52 63.9 °F /  17.7 °C 36.3 °F /  2.4 °C 30.37 in /  1028.3 hPa WNW 7.0 mph /  11.3 km/h 15.0 mph /  24.1 km/h 36 % 0.00 in /  0 mm
14:57 63.9 °F /  17.7 °C 37.0 °F /  2.8 °C 30.37 in /  1028.3 hPa NNW 6.0 mph /  9.7 km/h 13.0 mph /  20.9 km/h 37 % 0.00 in /  0 mm
15:02 64.0 °F /  17.8 °C 36.5 °F /  2.5 °C 30.37 in /  1028.3 hPa NW 7.0 mph /  11.3 km/h 16.0 mph /  25.7 km/h 36 % 0.00 in /  0 mm
15:07 63.9 °F /  17.7 °C 36.3 °F /  2.4 °C 30.37 in /  1028.3 hPa NW 9.0 mph /  14.5 km/h 16.0 mph /  25.7 km/h 36 % 0.00 in /  0 mm
15:12 63.9 °F /  17.7 °C 36.3 °F /  2.4 °C 30.37 in /  1028.3 hPa NW 6.0 mph /  9.7 km/h 16.0 mph /  25.7 km/h 36 % 0.00 in /  0 mm
15:17 64.0 °F /  17.8 °C 34.3 °F /  1.3 °C 30.37 in /  1028.3 hPa NW 11.0 mph /  17.7 km/h 14.0 mph /  22.5 km/h 33 % 0.00 in /  0 mm
15:22 64.0 °F /  17.8 °C 34.3 °F /  1.3 °C 30.37 in /  1028.3 hPa North 9.0 mph /  14.5 km/h 15.0 mph /  24.1 km/h 33 % 0.00 in /  0 mm
15:27 63.9 °F /  17.7 °C 34.9 °F /  1.6 °C 30.37 in /  1028.3 hPa NW 5.0 mph /  8 km/h 15.0 mph /  24.1 km/h 34 % 0.00 in /  0 mm
15:32 64.0 °F /  17.8 °C 35.1 °F /  1.7 °C 30.36 in /  1028 hPa NNW 4.0 mph /  6.4 km/h 15.0 mph /  24.1 km/h 34 % 0.00 in /  0 mm
15:37 64.0 °F /  17.8 °C 35.1 °F /  1.7 °C 30.37 in /  1028.3 hPa NNW 15.0 mph /  24.1 km/h 15.0 mph /  24.1 km/h 34 % 0.00 in /  0 mm
15:42 63.9 °F /  17.7 °C 34.9 °F /  1.6 °C 30.37 in /  1028.3 hPa NNW 10.0 mph /  16.1 km/h 15.0 mph /  24.1 km/h 34 % 0.00 in /  0 mm
15:47 63.9 °F /  17.7 °C 34.9 °F /  1.6 °C 30.37 in /  1028.3 hPa NNW 4.0 mph /  6.4 km/h 16.0 mph /  25.7 km/h 34 % 0.00 in /  0 mm
15:52 63.9 °F /  17.7 °C 34.2 °F /  1.2 °C 30.37 in /  1028.3 hPa NW 8.0 mph /  12.9 km/h 16.0 mph /  25.7 km/h 33 % 0.00 in /  0 mm
15:57 63.7 °F /  17.6 °C 34.0 °F /  1.1 °C 30.37 in /  1028.3 hPa NW 6.0 mph /  9.7 km/h 17.0 mph /  27.4 km/h 33 % 0.00 in /  0 mm
16:02 63.9 °F /  17.7 °C 34.2 °F /  1.2 °C 30.37 in /  1028.3 hPa WNW 9.0 mph /  14.5 km/h 17.0 mph /  27.4 km/h 33 % 0.00 in /  0 mm
16:07 63.5 °F /  17.5 °C 34.7 °F /  1.5 °C 30.37 in /  1028.3 hPa WNW 3.0 mph /  4.8 km/h 17.0 mph /  27.4 km/h 34 % 0.00 in /  0 mm
16:12 63.5 °F /  17.5 °C 33.8 °F /  1 °C 30.38 in /  1028.7 hPa NE 6.0 mph /  9.7 km/h 16.0 mph /  25.7 km/h 33 % 0.00 in /  0 mm
16:17 63.3 °F /  17.4 °C 34.5 °F /  1.4 °C 30.38 in /  1028.7 hPa NW 5.0 mph /  8 km/h 16.0 mph /  25.7 km/h 34 % 0.00 in /  0 mm
16:22 63.3 °F /  17.4 °C 33.8 °F /  1 °C 30.38 in /  1028.7 hPa NNW 9.0 mph /  14.5 km/h 15.0 mph /  24.1 km/h 33 % 0.00 in /  0 mm
16:27 63.0 °F /  17.2 °C 34.2 °F /  1.2 °C 30.38 in /  1028.7 hPa NW 8.0 mph /  12.9 km/h 14.0 mph /  22.5 km/h 34 % 0.00 in /  0 mm
16:32 62.8 °F /  17.1 °C 34.0 °F /  1.1 °C 30.38 in /  1028.7 hPa West 5.0 mph /  8 km/h 15.0 mph /  24.1 km/h 34 % 0.00 in /  0 mm
16:37 62.6 °F /  17 °C 33.8 °F /  1 °C 30.38 in /  1028.7 hPa North 11.0 mph /  17.7 km/h 16.0 mph /  25.7 km/h 34 % 0.00 in /  0 mm
16:42 62.4 °F /  16.9 °C 33.6 °F /  0.9 °C 30.38 in /  1028.7 hPa NNW 8.0 mph /  12.9 km/h 16.0 mph /  25.7 km/h 34 % 0.00 in /  0 mm
16:47 62.2 °F /  16.8 °C 33.4 °F /  0.8 °C 30.38 in /  1028.7 hPa NNW 6.0 mph /  9.7 km/h 17.0 mph /  27.4 km/h 34 % 0.00 in /  0 mm
16:52 62.2 °F /  16.8 °C 34.2 °F /  1.2 °C 30.38 in /  1028.7 hPa NW 8.0 mph /  12.9 km/h 17.0 mph /  27.4 km/h 35 % 0.00 in /  0 mm
16:57 62.1 °F /  16.7 °C 34.2 °F /  1.2 °C 30.38 in /  1028.7 hPa NW 6.0 mph /  9.7 km/h 17.0 mph /  27.4 km/h 35 % 0.00 in /  0 mm
17:02 62.1 °F /  16.7 °C 34.2 °F /  1.2 °C 30.38 in /  1028.7 hPa NW 5.0 mph /  8 km/h 15.0 mph /  24.1 km/h 35 % 0.00 in /  0 mm
17:07 61.9 °F /  16.6 °C 34.0 °F /  1.1 °C 30.38 in /  1028.7 hPa NW 4.0 mph /  6.4 km/h 15.0 mph /  24.1 km/h 35 % 0.00 in /  0 mm
17:12 61.5 °F /  16.4 °C 34.3 °F /  1.3 °C 30.38 in /  1028.7 hPa NW 3.0 mph /  4.8 km/h 12.0 mph /  19.3 km/h 36 % 0.00 in /  0 mm
17:17 61.3 °F /  16.3 °C 34.2 °F /  1.2 °C 30.39 in /  1029 hPa NW 5.0 mph /  8 km/h 16.0 mph /  25.7 km/h 36 % 0.00 in /  0 mm
17:22 61.0 °F /  16.1 °C 33.1 °F /  0.6 °C 30.39 in /  1029 hPa NNW 7.0 mph /  11.3 km/h 16.0 mph /  25.7 km/h 35 % 0.00 in /  0 mm
17:27 60.6 °F /  15.9 °C 32.9 °F /  0.5 °C 30.39 in /  1029 hPa NW 5.0 mph /  8 km/h 16.0 mph /  25.7 km/h 35 % 0.00 in /  0 mm
17:32 60.4 °F /  15.8 °C 32.7 °F /  0.4 °C 30.40 in /  1029.3 hPa NW 7.0 mph /  11.3 km/h 16.0 mph /  25.7 km/h 35 % 0.00 in /  0 mm
17:37 60.3 °F /  15.7 °C 33.3 °F /  0.7 °C 30.39 in /  1029 hPa NNW 4.0 mph /  6.4 km/h 16.0 mph /  25.7 km/h 36 % 0.00 in /  0 mm
17:42 60.1 °F /  15.6 °C 33.8 °F /  1 °C 30.40 in /  1029.3 hPa NW 5.0 mph /  8 km/h 14.0 mph /  22.5 km/h 37 % 0.00 in /  0 mm
17:47 59.7 °F /  15.4 °C 34.0 °F /  1.1 °C 30.40 in /  1029.3 hPa NNW 5.0 mph /  8 km/h 14.0 mph /  22.5 km/h 38 % 0.00 in /  0 mm
17:53 59.4 °F /  15.2 °C 33.8 °F /  1 °C 30.40 in /  1029.3 hPa NW 2.0 mph /  3.2 km/h 11.0 mph /  17.7 km/h 38 % 0.00 in /  0 mm
17:58 59.2 °F /  15.1 °C 33.6 °F /  0.9 °C 30.40 in /  1029.3 hPa NNW 5.0 mph /  8 km/h 11.0 mph /  17.7 km/h 38 % 0.00 in /  0 mm
18:03 58.8 °F /  14.9 °C 34.0 °F /  1.1 °C 30.40 in /  1029.3 hPa NW 1.0 mph /  1.6 km/h 10.0 mph /  16.1 km/h 39 % 0.00 in /  0 mm
18:08 58.6 °F /  14.8 °C 33.8 °F /  1 °C 30.40 in /  1029.3 hPa NW 3.0 mph /  4.8 km/h 10.0 mph /  16.1 km/h 39 % 0.00 in /  0 mm
18:13 58.5 °F /  14.7 °C 34.2 °F /  1.2 °C 30.40 in /  1029.3 hPa NNW 5.0 mph /  8 km/h 8.0 mph /  12.9 km/h 40 % 0.00 in /  0 mm
18:18 58.3 °F /  14.6 °C 34.7 °F /  1.5 °C 30.41 in /  1029.7 hPa NNW 4.0 mph /  6.4 km/h 9.0 mph /  14.5 km/h 41 % 0.00 in /  0 mm
18:23 57.9 °F /  14.4 °C 34.3 °F /  1.3 °C 30.41 in /  1029.7 hPa NW 4.0 mph /  6.4 km/h 9.0 mph /  14.5 km/h 41 % 0.00 in /  0 mm
18:28 57.7 °F /  14.3 °C 34.2 °F /  1.2 °C 30.41 in /  1029.7 hPa North 4.0 mph /  6.4 km/h 9.0 mph /  14.5 km/h 41 % 0.00 in /  0 mm
18:33 57.6 °F /  14.2 °C 34.0 °F /  1.1 °C 30.42 in /  1030 hPa NNW 3.0 mph /  4.8 km/h 9.0 mph /  14.5 km/h 41 % 0.00 in /  0 mm
18:38 57.2 °F /  14 °C 33.6 °F /  0.9 °C 30.42 in /  1030 hPa NW 3.0 mph /  4.8 km/h 8.0 mph /  12.9 km/h 41 % 0.00 in /  0 mm
18:43 56.8 °F /  13.8 °C 34.0 °F /  1.1 °C 30.43 in /  1030.4 hPa NW 1.0 mph /  1.6 km/h 6.0 mph /  9.7 km/h 42 % 0.00 in /  0 mm
18:48 56.7 °F /  13.7 °C 34.3 °F /  1.3 °C 30.43 in /  1030.4 hPa NNW 1.0 mph /  1.6 km/h 6.0 mph /  9.7 km/h 43 % 0.00 in /  0 mm
18:53 56.3 °F /  13.5 °C 34.7 °F /  1.5 °C 30.43 in /  1030.4 hPa Calm   6.0 mph /  9.7 km/h 44 % 0.00 in /  0 mm
18:58 55.9 °F /  13.3 °C 35.4 °F /  1.9 °C 30.44 in /  1030.7 hPa NW 2.0 mph /  3.2 km/h 6.0 mph /  9.7 km/h 46 % 0.00 in /  0 mm
19:03 55.8 °F /  13.2 °C 35.2 °F /  1.8 °C 30.44 in /  1030.7 hPa NNW 3.0 mph /  4.8 km/h 6.0 mph /  9.7 km/h 46 % 0.00 in /  0 mm
19:08 55.6 °F /  13.1 °C 35.1 °F /  1.7 °C 30.44 in /  1030.7 hPa NW 4.0 mph /  6.4 km/h 4.0 mph /  6.4 km/h 46 % 0.00 in /  0 mm
19:13 55.2 °F /  12.9 °C 34.9 °F /  1.6 °C 30.44 in /  1030.7 hPa NNW 1.0 mph /  1.6 km/h 5.0 mph /  8 km/h 46 % 0.00 in /  0 mm
19:18 55.0 °F /  12.8 °C 35.2 °F /  1.8 °C 30.44 in /  1030.7 hPa NW 3.0 mph /  4.8 km/h 5.0 mph /  8 km/h 47 % 0.00 in /  0 mm
19:23 54.9 °F /  12.7 °C 35.1 °F /  1.7 °C 30.44 in /  1030.7 hPa NW 2.0 mph /  3.2 km/h 5.0 mph /  8 km/h 47 % 0.00 in /  0 mm
19:28 54.7 °F /  12.6 °C 35.4 °F /  1.9 °C 30.44 in /  1030.7 hPa NW 1.0 mph /  1.6 km/h 4.0 mph /  6.4 km/h 48 % 0.00 in /  0 mm
19:33 54.3 °F /  12.4 °C 35.1 °F /  1.7 °C 30.44 in /  1030.7 hPa NW 1.0 mph /  1.6 km/h 4.0 mph /  6.4 km/h 48 % 0.00 in /  0 mm
19:38 54.0 °F /  12.2 °C 34.7 °F /  1.5 °C 30.44 in /  1030.7 hPa NNW 2.0 mph /  3.2 km/h 3.0 mph /  4.8 km/h 48 % 0.00 in /  0 mm
19:43 54.0 °F /  12.2 °C 34.7 °F /  1.5 °C 30.45 in /  1031 hPa Calm   3.0 mph /  4.8 km/h 48 % 0.00 in /  0 mm
19:48 53.8 °F /  12.1 °C 35.1 °F /  1.7 °C 30.45 in /  1031 hPa NW 1.0 mph /  1.6 km/h 3.0 mph /  4.8 km/h 49 % 0.00 in /  0 mm
19:53 53.4 °F /  11.9 °C 34.7 °F /  1.5 °C 30.45 in /  1031 hPa NW 1.0 mph /  1.6 km/h 3.0 mph /  4.8 km/h 49 % 0.00 in /  0 mm
19:58 53.4 °F /  11.9 °C 34.7 °F /  1.5 °C 30.45 in /  1031 hPa NW 2.0 mph /  3.2 km/h 3.0 mph /  4.8 km/h 49 % 0.00 in /  0 mm
20:03 53.2 °F /  11.8 °C 35.1 °F /  1.7 °C 30.45 in /  1031 hPa NW 2.0 mph /  3.2 km/h 4.0 mph /  6.4 km/h 50 % 0.00 in /  0 mm
20:08 52.9 °F /  11.6 °C 34.7 °F /  1.5 °C 30.46 in /  1031.4 hPa NW 2.0 mph /  3.2 km/h 4.0 mph /  6.4 km/h 50 % 0.00 in /  0 mm
20:13 52.7 °F /  11.5 °C 34.5 °F /  1.4 °C 30.46 in /  1031.4 hPa NW 2.0 mph /  3.2 km/h 4.0 mph /  6.4 km/h 50 % 0.00 in /  0 mm
20:18 52.5 °F /  11.4 °C 34.9 °F /  1.6 °C 30.46 in /  1031.4 hPa NNW 1.0 mph /  1.6 km/h 3.0 mph /  4.8 km/h 51 % 0.00 in /  0 mm
20:23 52.3 °F /  11.3 °C 34.7 °F /  1.5 °C 30.46 in /  1031.4 hPa NW 1.0 mph /  1.6 km/h 3.0 mph /  4.8 km/h 51 % 0.00 in /  0 mm
20:28 52.2 °F /  11.2 °C 34.5 °F /  1.4 °C 30.46 in /  1031.4 hPa NNW 2.0 mph /  3.2 km/h 4.0 mph /  6.4 km/h 51 % 0.00 in /  0 mm
20:33 52.2 °F /  11.2 °C 35.1 °F /  1.7 °C 30.46 in /  1031.4 hPa WNW 2.0 mph /  3.2 km/h 4.0 mph /  6.4 km/h 52 % 0.00 in /  0 mm
20:38 52.0 °F /  11.1 °C 34.9 °F /  1.6 °C 30.46 in /  1031.4 hPa NW 2.0 mph /  3.2 km/h 4.0 mph /  6.4 km/h 52 % 0.00 in /  0 mm
20:43 51.6 °F /  10.9 °C 35.1 °F /  1.7 °C 30.47 in /  1031.7 hPa NW 2.0 mph /  3.2 km/h 4.0 mph /  6.4 km/h 53 % 0.00 in /  0 mm
20:48 51.4 °F /  10.8 °C 34.9 °F /  1.6 °C 30.47 in /  1031.7 hPa West 2.0 mph /  3.2 km/h 4.0 mph /  6.4 km/h 53 % 0.00 in /  0 mm
20:53 51.3 °F /  10.7 °C 35.2 °F /  1.8 °C 30.47 in /  1031.7 hPa NW 1.0 mph /  1.6 km/h 3.0 mph /  4.8 km/h 54 % 0.00 in /  0 mm
20:58 51.1 °F /  10.6 °C 35.1 °F /  1.7 °C 30.47 in /  1031.7 hPa NW 1.0 mph /  1.6 km/h 3.0 mph /  4.8 km/h 54 % 0.00 in /  0 mm
21:03 50.7 °F /  10.4 °C 34.7 °F /  1.5 °C 30.47 in /  1031.7 hPa NNW 2.0 mph /  3.2 km/h 3.0 mph /  4.8 km/h 54 % 0.00 in /  0 mm
21:08 50.7 °F /  10.4 °C 34.7 °F /  1.5 °C 30.47 in /  1031.7 hPa NW 3.0 mph /  4.8 km/h 5.0 mph /  8 km/h 54 % 0.00 in /  0 mm
21:13 50.7 °F /  10.4 °C 34.7 °F /  1.5 °C 30.48 in /  1032.1 hPa NNW 1.0 mph /  1.6 km/h 6.0 mph /  9.7 km/h 54 % 0.00 in /  0 mm
21:18 50.7 °F /  10.4 °C 34.7 °F /  1.5 °C 30.48 in /  1032.1 hPa NW 1.0 mph /  1.6 km/h 6.0 mph /  9.7 km/h 54 % 0.00 in /  0 mm
21:23 50.5 °F /  10.3 °C 34.5 °F /  1.4 °C 30.48 in /  1032.1 hPa NNW 1.0 mph /  1.6 km/h 6.0 mph /  9.7 km/h 54 % 0.00 in /  0 mm
21:28 50.5 °F /  10.3 °C 35.1 °F /  1.7 °C 30.48 in /  1032.1 hPa NW 1.0 mph /  1.6 km/h 5.0 mph /  8 km/h 55 % 0.00 in /  0 mm
21:33 50.4 °F /  10.2 °C 34.9 °F /  1.6 °C 30.48 in /  1032.1 hPa Calm   5.0 mph /  8 km/h 55 % 0.00 in /  0 mm
21:38 50.4 °F /  10.2 °C 34.9 °F /  1.6 °C 30.48 in /  1032.1 hPa WNW 3.0 mph /  4.8 km/h 6.0 mph /  9.7 km/h 55 % 0.00 in /  0 mm
21:43 50.2 °F /  10.1 °C 34.7 °F /  1.5 °C 30.49 in /  1032.4 hPa Calm   6.0 mph /  9.7 km/h 55 % 0.00 in /  0 mm
21:48 50.0 °F /  10 °C 34.9 °F /  1.6 °C 30.49 in /  1032.4 hPa Calm   6.0 mph /  9.7 km/h 56 % 0.00 in /  0 mm
21:53 49.8 °F /  9.9 °C 34.7 °F /  1.5 °C 30.49 in /  1032.4 hPa NW 1.0 mph /  1.6 km/h 5.0 mph /  8 km/h 56 % 0.00 in /  0 mm
21:58 49.5 °F /  9.7 °C 34.3 °F /  1.3 °C 30.49 in /  1032.4 hPa Calm   5.0 mph /  8 km/h 56 % 0.00 in /  0 mm
22:03 49.3 °F /  9.6 °C 34.7 °F /  1.5 °C 30.50 in /  1032.7 hPa Calm   5.0 mph /  8 km/h 57 % 0.00 in /  0 mm
22:08 48.9 °F /  9.4 °C 34.3 °F /  1.3 °C 30.49 in /  1032.4 hPa Calm   3.0 mph /  4.8 km/h 57 % 0.00 in /  0 mm
22:13 48.7 °F /  9.3 °C 34.7 °F /  1.5 °C 30.50 in /  1032.7 hPa NW 2.0 mph /  3.2 km/h 2.0 mph /  3.2 km/h 58 % 0.00 in /  0 mm
22:18 48.7 °F /  9.3 °C 34.7 °F /  1.5 °C 30.50 in /  1032.7 hPa Calm   2.0 mph /  3.2 km/h 58 % 0.00 in /  0 mm
22:23 48.4 °F /  9.1 °C 34.7 °F /  1.5 °C 30.50 in /  1032.7 hPa Calm   2.0 mph /  3.2 km/h 59 % 0.00 in /  0 mm
22:28 48.2 °F /  9 °C 34.5 °F /  1.4 °C 30.50 in /  1032.7 hPa Calm   2.0 mph /  3.2 km/h 59 % 0.00 in /  0 mm
22:33 48.0 °F /  8.9 °C 34.9 °F /  1.6 °C 30.50 in /  1032.7 hPa NW 1.0 mph /  1.6 km/h 1.0 mph /  1.6 km/h 60 % 0.00 in /  0 mm
22:38 47.8 °F /  8.8 °C 34.7 °F /  1.5 °C 30.50 in /  1032.7 hPa Calm   1.0 mph /  1.6 km/h 60 % 0.00 in /  0 mm
22:43 47.7 °F /  8.7 °C 34.5 °F /  1.4 °C 30.50 in /  1032.7 hPa Calm   1.0 mph /  1.6 km/h 60 % 0.00 in /  0 mm
22:48 47.7 °F /  8.7 °C 34.9 °F /  1.6 °C 30.50 in /  1032.7 hPa NNW 1.0 mph /  1.6 km/h 2.0 mph /  3.2 km/h 61 % 0.00 in /  0 mm
22:53 47.5 °F /  8.6 °C 34.3 °F /  1.3 °C 30.50 in /  1032.7 hPa NNW 1.0 mph /  1.6 km/h 3.0 mph /  4.8 km/h 60 % 0.00 in /  0 mm
22:58 47.1 °F /  8.4 °C 34.3 °F /  1.3 °C 30.50 in /  1032.7 hPa Calm   3.0 mph /  4.8 km/h 61 % 0.00 in /  0 mm
23:03 47.1 °F /  8.4 °C 34.3 °F /  1.3 °C 30.50 in /  1032.7 hPa NNW 2.0 mph /  3.2 km/h 3.0 mph /  4.8 km/h 61 % 0.00 in /  0 mm
23:08 47.1 °F /  8.4 °C 34.3 °F /  1.3 °C 30.50 in /  1032.7 hPa NNW 1.0 mph /  1.6 km/h 3.0 mph /  4.8 km/h 61 % 0.00 in /  0 mm
23:13 46.9 °F /  8.3 °C 33.8 °F /  1 °C 30.50 in /  1032.7 hPa NW 1.0 mph /  1.6 km/h 3.0 mph /  4.8 km/h 60 % 0.00 in /  0 mm
23:18 46.9 °F /  8.3 °C 34.2 °F /  1.2 °C 30.50 in /  1032.7 hPa NNW 1.0 mph /  1.6 km/h 3.0 mph /  4.8 km/h 61 % 0.00 in /  0 mm
23:23 46.8 °F /  8.2 °C 34.0 °F /  1.1 °C 30.50 in /  1032.7 hPa NNW 2.0 mph /  3.2 km/h 3.0 mph /  4.8 km/h 61 % 0.00 in /  0 mm
23:28 46.8 °F /  8.2 °C 34.0 °F /  1.1 °C 30.50 in /  1032.7 hPa Calm   3.0 mph /  4.8 km/h 61 % 0.00 in /  0 mm
23:33 46.8 °F /  8.2 °C 34.0 °F /  1.1 °C 30.50 in /  1032.7 hPa NNW 2.0 mph /  3.2 km/h 3.0 mph /  4.8 km/h 61 % 0.00 in /  0 mm
23:38 46.8 °F /  8.2 °C 33.6 °F /  0.9 °C 30.50 in /  1032.7 hPa NNW 1.0 mph /  1.6 km/h 3.0 mph /  4.8 km/h 60 % 0.00 in /  0 mm
23:43 46.8 °F /  8.2 °C 33.6 °F /  0.9 °C 30.50 in /  1032.7 hPa NW 1.0 mph /  1.6 km/h 3.0 mph /  4.8 km/h 60 % 0.00 in /  0 mm
23:48 46.6 °F /  8.1 °C 33.4 °F /  0.8 °C 30.50 in /  1032.7 hPa NW 1.0 mph /  1.6 km/h 4.0 mph /  6.4 km/h 60 % 0.00 in /  0 mm
23:53 46.6 °F /  8.1 °C 33.4 °F /  0.8 °C 30.50 in /  1032.7 hPa NNW 1.0 mph /  1.6 km/h 4.0 mph /  6.4 km/h 60 % 0.00 in /  0 mm
23:58 46.4 °F /  8 °C 33.3 °F /  0.7 °C 30.50 in /  1032.7 hPa Calm   4.0 mph /  6.4 km/h 60 % 0.00 in /  0 mm
Spring, Texas: Villages of Bridgestone
Compliments of Weather Underground - 3 mb

Script developed by  Jim McMurry - jmcmurry@mwt.net Adapted for the template by  Wim van der Kuil - Leuven-Template.eu

You find our weather info also at:

UK Metoffice

WeatherCloud

Weather Underground

Mid-South Weather Network

AWEKAS

Citizen Weather Observer Program (CWOP)

HAMweather, WeatherForYou, PWS Weather

Equipment we use:

Weather-station
Davis Vantage Vue

Weather-program
Meteohub

Weather-server
Debian 7.9 x86 (Guest)

Provider
DreamHost

Davis Vantage Vue

Meteohub

Debian 7.9 x86 (Guest)

DreamHost